Norwegian Jewel — C6TX6 — position and weather

sailwx.info

Track history (hours):
 
Tides and Currents Weather Stations Pressure Air Temp Water Temp Dewpoint Dewpoint Depression Visibility Wind Speed Wind Dir Waves Ship Positions

Norwegian Jewel

Last reported at 2017-May-26 15:01 UTC. Time now 2017-May-26 16:49 UTC.
Position N 48°51' W 126°04'.

Type: Ship. MMSI: 311827000.

Date/timePositionNaut miles runAvg speedWind from/ knotsBaromVisibWave heightAir tempDewpointWater temp
2017-May-26 15:01N 48°51' W 126°04'3523.0
2017-May-26 13:31N 49°10' W 126°47'1223.3
2017-May-26 13:01N 49°16' W 127°03'  
2017-May-24 01:00N 57°36' W 133°18'260 6.2 120 / 101012.0 9.6 6.6
2017-May-22 07:00N 53°30' W 130°48'3215.9 130 / 241023.010.8 10.710.311.0
2017-May-22 05:00N 53°00' W 130°30'1818.4 150 / 191024.010.8 10.710.312.0
2017-May-22 04:00N 52°42' W 130°24'3916.4 190 / 191024.010.8 10.910.712.0
2017-May-22 01:36N 52°05' W 130°05'217.3
2017-May-22 01:29N 52°03' W 130°04'817.1
2017-May-22 01:00N 51°55' W 129°60'817.0
2017-May-22 00:30N 51°47' W 129°56'1017.0
2017-May-21 23:57N 51°38' W 129°51'1916.8
2017-May-21 22:49N 51°20' W 129°42'514.7
2017-May-21 22:29N 51°15' W 129°39'816.3
2017-May-21 22:00N 51°08' W 129°36'1016.8
2017-May-21 21:26N 50°58' W 129°32'716.8
2017-May-21 21:00N 50°51' W 129°29'1216.0
2017-May-21 20:14N 50°41' W 129°19'10416.6
2017-May-21 13:57N 49°32' W 127°17'1116.6
2017-May-21 13:19N 49°24' W 127°06'516.7
2017-May-21 13:00N 49°20' W 127°00'816.4
2017-May-21 12:30N 49°14' W 126°51'815.8
2017-May-21 12:00N 49°11' W 126°41'816.6
2017-May-21 11:30N 49°06' W 126°30'816.8
2017-May-21 11:00N 49°01' W 126°20'816.8
2017-May-21 10:30N 48°56' W 126°09'817.0
2017-May-21 10:00N 48°51' W 125°59'917.0
2017-May-21 09:30N 48°46' W 125°49'816.6
2017-May-21 09:00N 48°41' W 125°38'816.5
2017-May-21 08:30N 48°37' W 125°28'816.2
2017-May-21 08:00N 48°33' W 125°17'8553.8
2017-May-21 08:00N 48°30' W 125°06'1 2.4 310 / 161023.0 0.5 10.210.012.0
2017-May-21 07:30N 48°31' W 125°06'816.6
2017-May-21 07:00N 48°31' W 124°53'816.1
2017-May-21 06:30N 48°30' W 124°41'816.0
2017-May-21 06:00N 48°27' W 124°30'9530.5
2017-May-21 06:00N 48°24' W 124°18'1 1.6 310 / 221023.0 5.4 10.510.112.0
2017-May-21 05:30N 48°24' W 124°19'815.3
2017-May-21 05:00N 48°21' W 124°09'6394.5
2017-May-21 05:00N 48°18' W 124°00'1 2.4 300 / 221023.0 5.4 10.410.012.0
2017-May-21 04:30N 48°18' W 123°58'714.7
2017-May-21 04:00N 48°17' W 123°47'715.1
2017-May-21 03:30N 48°15' W 123°36'714.6
2017-May-21 03:00N 48°13' W 123°26'611.9
2017-May-21 02:31N 48°09' W 123°19'1019.7
2017-May-21 02:01N 48°13' W 123°06'1020.3
2017-May-21 01:31N 48°12' W 122°51'1020.6
2017-May-21 01:00N 48°06' W 122°39'1020.8
2017-May-21 00:30N 47°56' W 122°32'1020.2
2017-May-21 00:00N 47°47' W 122°27'918.3
2017-May-20 23:30N 47°38' W 122°26'4 6.4
2017-May-20 22:56N 47°37' W 122°21'0 0.0
2017-May-20 22:29N 47°37' W 122°21'0 0.0
2017-May-20 21:59N 47°37' W 122°21'0 0.0
2017-May-20 21:29N 47°37' W 122°21'0 0.0
2017-May-20 20:59N 47°37' W 122°21'0 0.0
2017-May-20 20:28N 47°37' W 122°21'0 0.0
2017-May-20 19:58N 47°37' W 122°21'0 0.0
2017-May-20 19:28N 47°37' W 122°21'0 0.0
2017-May-20 19:01N 47°37' W 122°21'0 0.0
2017-May-20 18:30N 47°37' W 122°21'0 0.0
2017-May-20 18:00N 47°37' W 122°21'0 0.0
2017-May-20 17:30N 47°37' W 122°21'0 0.0
2017-May-20 17:00N 47°37' W 122°21'0 0.0
2017-May-20 16:29N 47°37' W 122°21'0 0.0
2017-May-20 15:57N 47°37' W 122°21'0 0.0
2017-May-20 15:29N 47°37' W 122°21'0 0.0
2017-May-20 14:59N 47°37' W 122°21'0 0.0
2017-May-20 14:29N 47°37' W 122°21'0 0.0
2017-May-20 13:28N 47°37' W 122°21'0 0.0
2017-May-20 12:58N 47°37' W 122°21'0 0.3
2017-May-20 12:30N 47°37' W 122°21'3 6.0
2017-May-20 12:00N 47°37' W 122°25'4 8.6
2017-May-20 11:30N 47°41' W 122°28'510.9
2017-May-20 11:00N 47°47' W 122°27'611.6
2017-May-20 10:30N 47°52' W 122°29'511.0
2017-May-20 10:00N 47°57' W 122°34'511.0
2017-May-20 09:30N 48°01' W 122°38'510.7
2017-May-20 09:00N 48°07' W 122°40'3189.4
2017-May-20 09:00N 48°06' W 122°36'816.9 290 / 141020.0 12.010.211.0
2017-May-20 08:30N 48°10' W 122°47'510.7
2017-May-20 08:00N 48°11' W 122°54'510.4
2017-May-20 07:30N 48°12' W 123°02'510.8
2017-May-20 07:00N 48°12' W 123°10'510.5
2017-May-20 06:30N 48°11' W 123°18'611.2
2017-May-20 06:00N 48°11' W 123°27'713.6
2017-May-20 05:30N 48°18' W 123°28'612.8
2017-May-20 05:00N 48°24' W 123°24'1 2.8
2017-May-20 04:31N 48°25' W 123°23'0 0.0
2017-May-20 02:58N 48°25' W 123°23'0 0.0
2017-May-20 01:40N 48°25' W 123°23'0 0.0
2017-May-20 00:39N 48°25' W 123°23'0 0.0
2017-May-20 00:30N 48°25' W 123°23'0 0.0
2017-May-19 23:48N 48°25' W 123°23'0 0.0
2017-May-19 23:30N 48°25' W 123°23'0 0.0
2017-May-19 22:59N 48°25' W 123°23'0 0.0
2017-May-19 22:29N 48°25' W 123°23'0 0.0
2017-May-19 21:59N 48°25' W 123°23'0 0.0
2017-May-19 21:29N 48°25' W 123°23'0 0.3
2017-May-19 21:00N 48°25' W 123°23'3 6.4
2017-May-19 20:30N 48°22' W 123°25'510.6
2017-May-19 20:00N 48°17' W 123°27'815.4
2017-May-19 19:30N 48°13' W 123°37'918.5
2017-May-19 19:01N 48°13' W 123°51'918.3
2017-May-19 18:30N 48°16' W 124°04'1019.7
2017-May-19 18:00N 48°21' W 124°17'1019.5
2017-May-19 17:31N 48°25' W 124°30'1019.1
2017-May-19 17:00N 48°28' W 124°44'1019.1
2017-May-19 16:30N 48°29' W 124°58'1019.4
2017-May-19 16:01N 48°30' W 125°12'1019.9
2017-May-19 15:31N 48°35' W 125°26'1019.9
2017-May-19 15:01N 48°40' W 125°39'1019.8
2017-May-19 14:30N 48°45' W 125°51'4 7.0
2017-May-19 14:00N 48°42' W 125°54'2144.2 190 / 41020.010.8 10.3 9.912.0
2017-May-19 13:31N 48°57' W 126°17'1122.1
2017-May-19 13:01N 49°04' W 126°30'6340.6
2017-May-19 13:00N 49°00' W 126°24'1734.5 200 / 61021.010.8 10.510.112.0
2017-May-19 12:30N 49°11' W 126°43'1122.5
2017-May-19 12:00N 49°18' W 126°56'221845.9
2017-May-19 12:00N 49°12' W 126°24'3267.2 180 / 71019.010.8 10.410.011.0
2017-May-19 11:31N 49°25' W 127°09'5321.1
2017-May-19 09:00N 50°00' W 128°12'13822.9 150 / 121020.0 12.0 8.312.0
2017-May-19 03:00N 51°36' W 130°48'1414.1 110 / 121021.010.8 10.810.312.0
2017-May-19 02:00N 51°48' W 131°00'1919.1 100 / 171020.010.8 10.3 9.712.0
2017-May-19 01:00N 52°00' W 131°24'5125.6 150 / 151021.010.8 10.7 9.812.0
2017-May-18 23:00N 52°42' W 132°12'3919.6 180 / 101021.0 10.010.010.0
2017-May-18 21:00N 53°12' W 132°54'14123.5 170 / 141020.0 10.0 8.110.0
2017-May-18 15:00N 55°24' W 134°18'2412.1 180 / 141018.0 5.4 8.3 8.1 9.0
2017-May-18 13:00N 55°48' W 134°24'4824.0 150 / 91017.0 5.4 7.9 7.7 9.0
2017-May-18 11:00N 56°36' W 134°24'11616.6 190 / 181016.0 9.0 7.0 8.0
2017-May-18 04:00N 58°30' W 135°06'2424.0 200 / 91012.010.8 11.2 9.212.0
2017-May-18 03:00N 58°54' W 135°06'19 1.1 160 / 101012.010.8 14.412.212.0
2017-May-17 10:00N 58°36' W 134°54'7913.1 140 / 41012.0 9.0 9.0 9.0
2017-May-17 04:00N 57°36' W 133°18'1111.4 110 / 111010.010.8 14.412.4 8.0
2017-May-17 03:00N 57°30' W 133°00'23 1.5 110 / 101010.010.8 13.011.2 9.0
2017-May-16 11:00N 57°24' W 133°42'2020.5 010 / 91010.0 9.0 7.0 8.0
2017-May-16 10:00N 57°06' W 134°00'5618.5 100 / 41010.0 9.0 7.0 8.0
2017-May-16 07:00N 56°12' W 134°24'6312.6 090 / 101010.0 5.4 8.0 10.0
2017-May-16 02:00N 55°54' W 132°36'2827.5 320 / 131007.010.8 10.5 9.810.0
2017-May-16 01:00N 55°30' W 132°12'101 5.9 340 / 91007.010.8 9.9 8.610.0
2017-May-15 08:00N 54°00' W 130°54'11819.6 200 / 171014.0 10.0 3.710.0
2017-May-15 02:00N 52°06' W 130°06'1312.6 210 / 211011.010.8 7.8 7.212.0
2017-May-15 01:00N 51°54' W 130°00'3216.0 210 / 201012.010.8 8.1 7.312.0
2017-May-14 23:00N 51°24' W 129°42'1818.4 250 / 181013.0 11.0 5.011.0
2017-May-14 22:00N 51°06' W 129°36'1414.2 250 / 171014.0 11.0 5.011.0
2017-May-14 21:00N 50°54' W 129°24'1716.5 270 / 121014.0 11.0 5.011.0
2017-May-14 20:00N 50°42' W 129°06'10317.1 300 / 151015.0 11.0 5.011.0
2017-May-14 14:00N 49°30' W 127°12'610.6 350 / 181015.010.8 8.8 8.412.0
2017-May-14 13:25N 49°25' W 127°07'717.3
2017-May-14 13:00N 49°20' W 126°59'816.8
2017-May-14 12:30N 49°15' W 126°49'816.7
2017-May-14 12:00N 49°10' W 126°39'816.4
2017-May-14 11:30N 49°05' W 126°28'816.9
2017-May-14 11:00N 49°00' W 126°18'13808.1
2017-May-14 11:00N 48°48' W 126°12'817.2 010 / 81015.0 12.0 3.812.0
2017-May-14 10:30N 48°56' W 126°07'816.8
2017-May-14 10:00N 48°50' W 125°57'3195.0
2017-May-14 10:00N 48°48' W 125°54'611.8 020 / 131014.0 12.0 3.812.0
2017-May-14 09:31N 48°46' W 125°46'917.3
2017-May-14 09:00N 48°40' W 125°36'816.8
2017-May-14 08:30N 48°36' W 125°25'917.0
2017-May-14 08:00N 48°32' W 125°14'5506.9
2017-May-14 08:00N 48°30' W 125°06'5 8.7 180 / 71014.0 12.0 3.812.0
2017-May-14 07:27N 48°31' W 124°59'2317.1
2017-May-14 06:07N 48°26' W 124°26'15125.2
2017-May-14 06:00N 48°18' W 124°06'12207.1 300 / 101014.0 5.4 9.0 11.0
2017-May-14 05:56N 48°24' W 124°21'717.1
2017-May-14 05:30N 48°22' W 124°11'817.1
2017-May-14 05:01N 48°18' W 123°59'917.2
2017-May-14 04:30N 48°16' W 123°46'816.3
2017-May-14 04:01N 48°15' W 123°35'815.1
2017-May-14 03:30N 48°11' W 123°25'611.0
2017-May-14 03:00N 48°10' W 123°17'918.8
2017-May-14 02:30N 48°13' W 123°03'1019.5
2017-May-14 02:01N 48°12' W 122°49'916.7
2017-May-14 01:29N 48°06' W 122°39'  
Track history (hours):
 
Tides and Currents Weather Stations Pressure Air Temp Water Temp Dewpoint Dewpoint Depression Visibility Wind Speed Wind Dir Waves Ship Positions

Norwegian Jewel

Last reported at 2017-May-26 15:01 UTC. Time now 2017-May-26 16:49 UTC.
Position N 48°51' W 126°04'.

Type: Ship. MMSI: 311827000.

Date/timePositionNaut miles runAvg speedWind from/ knotsBaromVisibWave heightAir tempDewpointWater temp
2017-May-26 15:01N 48°51' W 126°04'3523.0
2017-May-26 13:31N 49°10' W 126°47'1223.3
2017-May-26 13:01N 49°16' W 127°03'  
2017-May-24 01:00N 57°36' W 133°18'260 6.2 120 / 101012.0 9.6 6.6
2017-May-22 07:00N 53°30' W 130°48'3215.9 130 / 241023.010.8 10.710.311.0
2017-May-22 05:00N 53°00' W 130°30'1818.4 150 / 191024.010.8 10.710.312.0
2017-May-22 04:00N 52°42' W 130°24'3916.4 190 / 191024.010.8 10.910.712.0
2017-May-22 01:36N 52°05' W 130°05'217.3
2017-May-22 01:29N 52°03' W 130°04'817.1
2017-May-22 01:00N 51°55' W 129°60'817.0
2017-May-22 00:30N 51°47' W 129°56'1017.0
2017-May-21 23:57N 51°38' W 129°51'1916.8
2017-May-21 22:49N 51°20' W 129°42'514.7
2017-May-21 22:29N 51°15' W 129°39'816.3
2017-May-21 22:00N 51°08' W 129°36'1016.8
2017-May-21 21:26N 50°58' W 129°32'716.8
2017-May-21 21:00N 50°51' W 129°29'1216.0
2017-May-21 20:14N 50°41' W 129°19'10416.6
2017-May-21 13:57N 49°32' W 127°17'1116.6
2017-May-21 13:19N 49°24' W 127°06'516.7
2017-May-21 13:00N 49°20' W 127°00'816.4
2017-May-21 12:30N 49°14' W 126°51'815.8
2017-May-21 12:00N 49°11' W 126°41'816.6
2017-May-21 11:30N 49°06' W 126°30'816.8
2017-May-21 11:00N 49°01' W 126°20'816.8
2017-May-21 10:30N 48°56' W 126°09'817.0
2017-May-21 10:00N 48°51' W 125°59'917.0
2017-May-21 09:30N 48°46' W 125°49'816.6
2017-May-21 09:00N 48°41' W 125°38'816.5
2017-May-21 08:30N 48°37' W 125°28'816.2
2017-May-21 08:00N 48°33' W 125°17'8553.8
2017-May-21 08:00N 48°30' W 125°06'1 2.4 310 / 161023.0 0.5 10.210.012.0
2017-May-21 07:30N 48°31' W 125°06'816.6
2017-May-21 07:00N 48°31' W 124°53'816.1
2017-May-21 06:30N 48°30' W 124°41'816.0
2017-May-21 06:00N 48°27' W 124°30'9530.5
2017-May-21 06:00N 48°24' W 124°18'1 1.6 310 / 221023.0 5.4 10.510.112.0
2017-May-21 05:30N 48°24' W 124°19'815.3
2017-May-21 05:00N 48°21' W 124°09'6394.5
2017-May-21 05:00N 48°18' W 124°00'1 2.4 300 / 221023.0 5.4 10.410.012.0
2017-May-21 04:30N 48°18' W 123°58'714.7
2017-May-21 04:00N 48°17' W 123°47'715.1
2017-May-21 03:30N 48°15' W 123°36'714.6
2017-May-21 03:00N 48°13' W 123°26'611.9
2017-May-21 02:31N 48°09' W 123°19'1019.7
2017-May-21 02:01N 48°13' W 123°06'1020.3
2017-May-21 01:31N 48°12' W 122°51'1020.6
2017-May-21 01:00N 48°06' W 122°39'1020.8
2017-May-21 00:30N 47°56' W 122°32'1020.2
2017-May-21 00:00N 47°47' W 122°27'918.3
2017-May-20 23:30N 47°38' W 122°26'4 6.4
2017-May-20 22:56N 47°37' W 122°21'0 0.0
2017-May-20 22:29N 47°37' W 122°21'0 0.0
2017-May-20 21:59N 47°37' W 122°21'0 0.0
2017-May-20 21:29N 47°37' W 122°21'0 0.0
2017-May-20 20:59N 47°37' W 122°21'0 0.0
2017-May-20 20:28N 47°37' W 122°21'0 0.0
2017-May-20 19:58N 47°37' W 122°21'0 0.0
2017-May-20 19:28N 47°37' W 122°21'0 0.0
2017-May-20 19:01N 47°37' W 122°21'0 0.0
2017-May-20 18:30N 47°37' W 122°21'0 0.0
2017-May-20 18:00N 47°37' W 122°21'0 0.0
2017-May-20 17:30N 47°37' W 122°21'0 0.0
2017-May-20 17:00N 47°37' W 122°21'0 0.0
2017-May-20 16:29N 47°37' W 122°21'0 0.0
2017-May-20 15:57N 47°37' W 122°21'0 0.0
2017-May-20 15:29N 47°37' W 122°21'0 0.0
2017-May-20 14:59N 47°37' W 122°21'0 0.0
2017-May-20 14:29N 47°37' W 122°21'0 0.0
2017-May-20 13:28N 47°37' W 122°21'0 0.0
2017-May-20 12:58N 47°37' W 122°21'0 0.3
2017-May-20 12:30N 47°37' W 122°21'3 6.0
2017-May-20 12:00N 47°37' W 122°25'4 8.6
2017-May-20 11:30N 47°41' W 122°28'510.9
2017-May-20 11:00N 47°47' W 122°27'611.6
2017-May-20 10:30N 47°52' W 122°29'511.0
2017-May-20 10:00N 47°57' W 122°34'511.0
2017-May-20 09:30N 48°01' W 122°38'510.7
2017-May-20 09:00N 48°07' W 122°40'3189.4
2017-May-20 09:00N 48°06' W 122°36'816.9 290 / 141020.0 12.010.211.0
2017-May-20 08:30N 48°10' W 122°47'510.7
2017-May-20 08:00N 48°11' W 122°54'510.4
2017-May-20 07:30N 48°12' W 123°02'510.8
2017-May-20 07:00N 48°12' W 123°10'510.5
2017-May-20 06:30N 48°11' W 123°18'611.2
2017-May-20 06:00N 48°11' W 123°27'713.6
2017-May-20 05:30N 48°18' W 123°28'612.8
2017-May-20 05:00N 48°24' W 123°24'1 2.8
2017-May-20 04:31N 48°25' W 123°23'0 0.0
2017-May-20 02:58N 48°25' W 123°23'0 0.0
2017-May-20 01:40N 48°25' W 123°23'0 0.0
2017-May-20 00:39N 48°25' W 123°23'0 0.0
2017-May-20 00:30N 48°25' W 123°23'0 0.0
2017-May-19 23:48N 48°25' W 123°23'0 0.0
2017-May-19 23:30N 48°25' W 123°23'0 0.0
2017-May-19 22:59N 48°25' W 123°23'0 0.0
2017-May-19 22:29N 48°25' W 123°23'0 0.0
2017-May-19 21:59N 48°25' W 123°23'0 0.0
2017-May-19 21:29N 48°25' W 123°23'0 0.3
2017-May-19 21:00N 48°25' W 123°23'3 6.4
2017-May-19 20:30N 48°22' W 123°25'510.6
2017-May-19 20:00N 48°17' W 123°27'815.4
2017-May-19 19:30N 48°13' W 123°37'918.5
2017-May-19 19:01N 48°13' W 123°51'918.3
2017-May-19 18:30N 48°16' W 124°04'1019.7
2017-May-19 18:00N 48°21' W 124°17'1019.5
2017-May-19 17:31N 48°25' W 124°30'1019.1
2017-May-19 17:00N 48°28' W 124°44'1019.1
2017-May-19 16:30N 48°29' W 124°58'1019.4
2017-May-19 16:01N 48°30' W 125°12'1019.9
2017-May-19 15:31N 48°35' W 125°26'1019.9
2017-May-19 15:01N 48°40' W 125°39'1019.8
2017-May-19 14:30N 48°45' W 125°51'4 7.0
2017-May-19 14:00N 48°42' W 125°54'2144.2 190 / 41020.010.8 10.3 9.912.0
2017-May-19 13:31N 48°57' W 126°17'1122.1
2017-May-19 13:01N 49°04' W 126°30'6340.6
2017-May-19 13:00N 49°00' W 126°24'1734.5 200 / 61021.010.8 10.510.112.0
2017-May-19 12:30N 49°11' W 126°43'1122.5
2017-May-19 12:00N 49°18' W 126°56'221845.9
2017-May-19 12:00N 49°12' W 126°24'3267.2 180 / 71019.010.8 10.410.011.0
2017-May-19 11:31N 49°25' W 127°09'5321.1
2017-May-19 09:00N 50°00' W 128°12'13822.9 150 / 121020.0 12.0 8.312.0
2017-May-19 03:00N 51°36' W 130°48'1414.1 110 / 121021.010.8 10.810.312.0
2017-May-19 02:00N 51°48' W 131°00'1919.1 100 / 171020.010.8 10.3 9.712.0
2017-May-19 01:00N 52°00' W 131°24'5125.6 150 / 151021.010.8 10.7 9.812.0
2017-May-18 23:00N 52°42' W 132°12'3919.6 180 / 101021.0 10.010.010.0
2017-May-18 21:00N 53°12' W 132°54'14123.5 170 / 141020.0 10.0 8.110.0
2017-May-18 15:00N 55°24' W 134°18'2412.1 180 / 141018.0 5.4 8.3 8.1 9.0
2017-May-18 13:00N 55°48' W 134°24'4824.0 150 / 91017.0 5.4 7.9 7.7 9.0
2017-May-18 11:00N 56°36' W 134°24'11616.6 190 / 181016.0 9.0 7.0 8.0
2017-May-18 04:00N 58°30' W 135°06'2424.0 200 / 91012.010.8 11.2 9.212.0
2017-May-18 03:00N 58°54' W 135°06'19 1.1 160 / 101012.010.8 14.412.212.0
2017-May-17 10:00N 58°36' W 134°54'7913.1 140 / 41012.0 9.0 9.0 9.0
2017-May-17 04:00N 57°36' W 133°18'1111.4 110 / 111010.010.8 14.412.4 8.0
2017-May-17 03:00N 57°30' W 133°00'23 1.5 110 / 101010.010.8 13.011.2 9.0
2017-May-16 11:00N 57°24' W 133°42'2020.5 010 / 91010.0 9.0 7.0 8.0
2017-May-16 10:00N 57°06' W 134°00'5618.5 100 / 41010.0 9.0 7.0 8.0
2017-May-16 07:00N 56°12' W 134°24'6312.6 090 / 101010.0 5.4 8.0 10.0
2017-May-16 02:00N 55°54' W 132°36'2827.5 320 / 131007.010.8 10.5 9.810.0
2017-May-16 01:00N 55°30' W 132°12'101 5.9 340 / 91007.010.8 9.9 8.610.0
2017-May-15 08:00N 54°00' W 130°54'11819.6 200 / 171014.0 10.0 3.710.0
2017-May-15 02:00N 52°06' W 130°06'1312.6 210 / 211011.010.8 7.8 7.212.0
2017-May-15 01:00N 51°54' W 130°00'3216.0 210 / 201012.010.8 8.1 7.312.0
2017-May-14 23:00N 51°24' W 129°42'1818.4 250 / 181013.0 11.0 5.011.0
2017-May-14 22:00N 51°06' W 129°36'1414.2 250 / 171014.0 11.0 5.011.0
2017-May-14 21:00N 50°54' W 129°24'1716.5 270 / 121014.0 11.0 5.011.0
2017-May-14 20:00N 50°42' W 129°06'10317.1 300 / 151015.0 11.0 5.011.0
2017-May-14 14:00N 49°30' W 127°12'610.6 350 / 181015.010.8 8.8 8.412.0
2017-May-14 13:25N 49°25' W 127°07'717.3
2017-May-14 13:00N 49°20' W 126°59'816.8
2017-May-14 12:30N 49°15' W 126°49'816.7
2017-May-14 12:00N 49°10' W 126°39'816.4
2017-May-14 11:30N 49°05' W 126°28'816.9
2017-May-14 11:00N 49°00' W 126°18'13808.1
2017-May-14 11:00N 48°48' W 126°12'817.2 010 / 81015.0 12.0 3.812.0
2017-May-14 10:30N 48°56' W 126°07'816.8
2017-May-14 10:00N 48°50' W 125°57'3195.0
2017-May-14 10:00N 48°48' W 125°54'611.8 020 / 131014.0 12.0 3.812.0
2017-May-14 09:31N 48°46' W 125°46'917.3
2017-May-14 09:00N 48°40' W 125°36'816.8
2017-May-14 08:30N 48°36' W 125°25'917.0
2017-May-14 08:00N 48°32' W 125°14'5506.9
2017-May-14 08:00N 48°30' W 125°06'5 8.7 180 / 71014.0 12.0 3.812.0
2017-May-14 07:27N 48°31' W 124°59'2317.1
2017-May-14 06:07N 48°26' W 124°26'15125.2
2017-May-14 06:00N 48°18' W 124°06'12207.1 300 / 101014.0 5.4 9.0 11.0
2017-May-14 05:56N 48°24' W 124°21'717.1
2017-May-14 05:30N 48°22' W 124°11'817.1
2017-May-14 05:01N 48°18' W 123°59'917.2
2017-May-14 04:30N 48°16' W 123°46'816.3
2017-May-14 04:01N 48°15' W 123°35'815.1
2017-May-14 03:30N 48°11' W 123°25'611.0
2017-May-14 03:00N 48°10' W 123°17'918.8
2017-May-14 02:30N 48°13' W 123°03'1019.5
2017-May-14 02:01N 48°12' W 122°49'916.7
2017-May-14 01:29N 48°06' W 122°39'  

Dump ship's entire track history